CWWU

Ingenika Point Airport

Long Pond, Canada
METAR CWWU 161730Z 21011KT 3SM -SHRA BR BKN019 OVC060 23/21 A3012 RMK SC6SC2 SLP201
Observed Flight Rules
Jul-16 @ 17:30 UTC (34 minutes ago) Marginal Visual Flight Rules
Wind Visibility Clouds Conditions
210° at 11 knots 3 miles
  • Broken at 1,900' AGL
  • Overcast at 6,000' AGL
  • Light Rain
  • Mist
Temperatures Readings
Current 23°C / 73°F
Dewpoint 21°C / 70°F
Humidity 89%
Altimeter 30.12" Hg
Pressure 1020.1 hPa
Elevation 13
METAR CWWU 161730Z 21011KT 3SM -SHRA BR BKN019 OVC060 23/21 A3012 RMK SC6SC2 SLP201
Observed Flight Rules
Jul-16 @ 17:30 UTC
(34 minutes ago)
MVFR
Wind Visibility
210° at 11 knots 3 miles
Clouds
  • Broken at 1,900' AGL
  • Overcast at 6,000' AGL
Conditions
  • Light Rain
  • Mist
Temperature Dewpoint
23°C / 73°F 21°C / 70°F
Humidity Altimeter Pressure
89% 30.12" Hg 1020.1 hPa